createdAt,value
2018-11-10T00:01:34.461Z,51.27
2018-11-10T00:04:02.254Z,52.73
2018-11-10T00:06:29.905Z,50.73
2018-11-10T00:08:57.580Z,59.07
2018-11-10T00:11:25.260Z,49.23
2018-11-10T00:13:52.897Z,56.97
2018-11-10T00:16:20.625Z,55.27
2018-11-10T00:18:48.337Z,51.53
2018-11-10T00:21:16.086Z,52.23
2018-11-10T00:23:43.866Z,54.37
2018-11-10T00:26:11.549Z,54.63
2018-11-10T00:28:39.293Z,55.33
2018-11-10T00:31:06.969Z,50.80
2018-11-10T00:33:34.721Z,50.47
2018-11-10T00:36:02.449Z,50.67
2018-11-10T00:38:30.189Z,54.33
2018-11-10T00:40:57.977Z,57.93
2018-11-10T00:43:25.752Z,53.97
2018-11-10T00:45:53.461Z,54.33
2018-11-10T00:48:21.205Z,52.13
2018-11-10T00:50:48.960Z,52.23
2018-11-10T00:53:16.647Z,52.80
2018-11-10T00:55:44.352Z,45.80
2018-11-10T00:58:12.089Z,49.60
2018-11-10T01:00:39.709Z,50.00
2018-11-10T01:03:07.470Z,51.93
2018-11-10T01:05:35.219Z,49.37
2018-11-10T01:08:02.929Z,52.57
2018-11-10T01:10:30.619Z,53.87
2018-11-10T01:12:58.240Z,54.07
2018-11-10T01:15:26.916Z,49.47
2018-11-10T01:17:54.651Z,54.57
2018-11-10T01:20:22.438Z,54.10
2018-11-10T01:22:50.101Z,50.83
2018-11-10T01:25:17.800Z,51.87
2018-11-10T01:27:45.501Z,47.37
2018-11-10T01:30:14.580Z,52.03
2018-11-10T01:32:43.190Z,48.03
2018-11-10T01:35:11.081Z,57.30
2018-11-10T01:37:38.745Z,51.23
2018-11-10T01:40:08.969Z,49.23
2018-11-10T01:42:36.713Z,54.43
2018-11-10T01:45:06.731Z,46.23
2018-11-10T01:47:34.499Z,51.07
2018-11-10T01:50:02.245Z,43.97
2018-11-10T01:52:29.910Z,42.07
2018-11-10T01:54:57.620Z,51.73
2018-11-10T01:57:25.533Z,55.87
2018-11-10T01:59:53.303Z,51.50
2018-11-10T02:02:20.961Z,55.67
2018-11-10T02:04:48.661Z,53.70
2018-11-10T02:07:16.356Z,65.47
2018-11-10T02:09:44.052Z,53.67
2018-11-10T02:12:14.276Z,63.77
2018-11-10T02:14:42.177Z,59.83
2018-11-10T02:17:09.865Z,56.93
2018-11-10T02:19:37.572Z,58.03
2018-11-10T02:22:05.312Z,55.30
2018-11-10T02:24:33.097Z,55.60
2018-11-10T02:27:00.833Z,54.47
2018-11-10T02:29:28.534Z,61.30
2018-11-10T02:31:56.252Z,60.37
2018-11-10T02:34:28.784Z,60.40
2018-11-10T02:36:56.657Z,67.70
2018-11-10T02:39:24.373Z,64.37
2018-11-10T02:41:52.177Z,61.90
2018-11-10T02:44:19.928Z,70.77
2018-11-10T02:46:47.597Z,64.60
2018-11-10T02:49:15.333Z,60.93
2018-11-10T02:51:42.993Z,61.30
2018-11-10T02:54:10.681Z,63.93
2018-11-10T02:56:38.433Z,65.97
2018-11-10T02:59:06.589Z,62.67
2018-11-10T03:01:34.237Z,59.60
2018-11-10T03:04:01.967Z,63.20
2018-11-10T03:06:29.605Z,59.53
2018-11-10T03:08:57.356Z,57.77
2018-11-10T03:11:25.013Z,67.43
2018-11-10T03:13:52.677Z,62.83
2018-11-10T03:16:20.459Z,64.23
2018-11-10T03:18:48.140Z,58.03
2018-11-10T03:21:15.867Z,60.97
2018-11-10T03:23:43.628Z,60.10
2018-11-10T03:26:11.293Z,60.33
2018-11-10T03:28:39.037Z,51.47
2018-11-10T03:31:06.721Z,59.70
2018-11-10T03:33:34.450Z,59.37
2018-11-10T03:36:02.177Z,58.57
2018-11-10T03:38:29.933Z,59.37
2018-11-10T03:40:57.625Z,55.97
2018-11-10T03:43:25.320Z,56.83
2018-11-10T03:45:52.992Z,58.30
2018-11-10T03:48:20.736Z,60.47
2018-11-10T03:50:48.382Z,59.07
2018-11-10T03:53:16.072Z,50.90
2018-11-10T03:55:43.773Z,59.47
2018-11-10T03:58:11.484Z,49.70
2018-11-10T04:00:39.208Z,55.47
2018-11-10T04:03:06.933Z,50.33
2018-11-10T04:05:34.635Z,57.27
2018-11-10T04:08:02.380Z,50.87
2018-11-10T04:10:30.133Z,56.33
2018-11-10T04:12:57.870Z,51.30
2018-11-10T04:15:25.714Z,58.30
2018-11-10T04:17:53.373Z,51.20
2018-11-10T04:20:21.137Z,48.87
2018-11-10T04:22:48.881Z,58.23
2018-11-10T04:25:16.612Z,44.43
2018-11-10T04:27:44.461Z,56.23
2018-11-10T04:30:12.125Z,53.97
2018-11-10T04:32:39.780Z,54.70
2018-11-10T04:35:07.805Z,51.80
2018-11-10T04:37:35.723Z,51.30
2018-11-10T04:40:03.693Z,56.93
2018-11-10T04:42:31.422Z,53.83
2018-11-10T04:44:59.108Z,51.30
2018-11-10T04:47:26.836Z,57.80
2018-11-10T04:49:54.654Z,51.40
2018-11-10T04:52:22.221Z,55.57
2018-11-10T04:54:49.845Z,56.27
2018-11-10T04:57:17.609Z,54.27
2018-11-10T04:59:45.285Z,58.03
2018-11-10T05:02:13.002Z,51.10
2018-11-10T05:04:40.737Z,55.03
2018-11-10T05:07:08.443Z,52.17
2018-11-10T05:09:36.226Z,58.40
2018-11-10T05:12:04.145Z,52.80
2018-11-10T05:14:31.838Z,66.27
2018-11-10T05:16:59.589Z,59.37
2018-11-10T05:19:27.292Z,56.50
2018-11-10T05:21:55.001Z,59.80
2018-11-10T05:24:23.105Z,63.73
2018-11-10T05:26:50.760Z,63.80
2018-11-10T05:29:18.493Z,70.90
2018-11-10T05:31:46.184Z,61.57
2018-11-10T05:34:13.905Z,67.30
2018-11-10T05:36:41.588Z,62.93
2018-11-10T05:39:09.837Z,65.03
2018-11-10T05:41:37.590Z,64.57
2018-11-10T05:44:05.305Z,72.33
2018-11-10T05:46:33.052Z,70.03
2018-11-10T05:49:00.828Z,65.70
2018-11-10T05:51:28.589Z,67.37
2018-11-10T05:53:56.236Z,70.67
2018-11-10T05:56:23.903Z,67.00
2018-11-10T05:58:51.624Z,59.13
2018-11-10T06:01:19.292Z,72.57
2018-11-10T06:03:46.986Z,71.17
2018-11-10T06:06:14.628Z,60.50
2018-11-10T06:08:42.356Z,64.77
2018-11-10T06:11:10.057Z,70.47
2018-11-10T06:13:37.784Z,73.03
2018-11-10T06:16:05.787Z,72.23
2018-11-10T06:18:33.449Z,73.57
2018-11-10T06:21:01.118Z,72.33
2018-11-10T06:23:28.862Z,69.30
2018-11-10T06:25:56.561Z,72.13
2018-11-10T06:28:24.197Z,79.13
2018-11-10T06:30:52.156Z,75.23
2018-11-10T06:33:19.853Z,68.80
2018-11-10T06:35:47.560Z,67.37
2018-11-10T06:38:15.217Z,70.27
2018-11-10T06:40:42.866Z,81.57
2018-11-10T06:43:10.513Z,79.00
2018-11-10T06:45:38.240Z,73.30
2018-11-10T06:48:06.197Z,76.00
2018-11-10T06:50:34.309Z,78.27
2018-11-10T06:53:02.823Z,81.10
2018-11-10T06:55:30.720Z,76.83
2018-11-10T06:57:58.685Z,85.47
2018-11-10T07:00:26.512Z,75.17
2018-11-10T07:02:54.438Z,82.27
2018-11-10T07:05:22.377Z,81.67
2018-11-10T07:07:50.108Z,81.63
2018-11-10T07:10:17.801Z,81.50
2018-11-10T07:12:45.507Z,82.77
2018-11-10T07:15:13.261Z,84.40
2018-11-10T07:17:41.088Z,80.70
2018-11-10T07:20:08.802Z,83.03
2018-11-10T07:22:36.574Z,76.13
2018-11-10T07:25:05.155Z,82.03
2018-11-10T07:27:32.832Z,79.80
2018-11-10T07:30:00.473Z,82.30
2018-11-10T07:32:28.903Z,75.60
2018-11-10T07:34:56.615Z,74.20
2018-11-10T07:37:24.405Z,74.37
2018-11-10T07:39:53.128Z,78.40
2018-11-10T07:42:21.737Z,81.10
2018-11-10T07:44:49.428Z,79.80
2018-11-10T07:47:17.832Z,69.87
2018-11-10T07:49:46.236Z,75.53
2018-11-10T07:52:13.925Z,81.53
2018-11-10T07:54:41.605Z,78.93
2018-11-10T07:57:09.328Z,78.93
2018-11-10T07:59:36.988Z,75.67
2018-11-10T08:02:04.972Z,76.17
2018-11-10T08:04:32.606Z,68.23
2018-11-10T08:07:00.293Z,77.10
2018-11-10T08:09:27.988Z,77.87
2018-11-10T08:11:55.652Z,73.13
2018-11-10T08:14:23.359Z,71.77
2018-11-10T08:16:51.810Z,75.10
2018-11-10T08:19:19.528Z,71.93
2018-11-10T08:21:47.764Z,73.13
2018-11-10T08:24:15.409Z,63.23
2018-11-10T08:26:43.125Z,66.43
2018-11-10T08:29:10.916Z,57.13
2018-11-10T08:31:38.761Z,64.43
2018-11-10T08:34:06.510Z,62.10
2018-11-10T08:36:34.213Z,53.67
2018-11-10T08:39:02.346Z,48.33
2018-11-10T08:41:29.999Z,54.43
2018-11-10T08:43:58.074Z,53.73
2018-11-10T08:46:25.735Z,53.13
2018-11-10T08:48:53.580Z,49.47
2018-11-10T08:51:21.244Z,47.73
2018-11-10T08:53:48.977Z,52.63
2018-11-10T08:56:17.221Z,49.33
2018-11-10T08:58:48.652Z,49.60
2018-11-10T09:01:16.948Z,53.90
2018-11-10T09:03:45.736Z,57.77
2018-11-10T09:06:13.452Z,51.20
2018-11-10T09:08:41.325Z,44.70
2018-11-10T09:11:09.229Z,50.47
2018-11-10T09:13:37.006Z,51.27
2018-11-10T09:16:04.783Z,45.57
2018-11-10T09:18:32.461Z,41.77
2018-11-10T09:21:00.264Z,50.77
2018-11-10T09:23:28.040Z,45.70
2018-11-10T09:25:55.791Z,46.27
2018-11-10T09:28:23.462Z,50.90
2018-11-10T09:30:51.266Z,49.00
2018-11-10T09:33:18.925Z,49.97
2018-11-10T09:35:46.664Z,47.20
2018-11-10T09:38:14.373Z,48.97
2018-11-10T09:40:42.085Z,50.57
2018-11-10T09:43:09.794Z,52.60
2018-11-10T09:45:37.516Z,49.33
2018-11-10T09:48:05.566Z,46.13
2018-11-10T09:50:33.320Z,50.03
2018-11-10T09:53:01.039Z,53.33
2018-11-10T09:55:28.734Z,45.20
2018-11-10T09:57:56.405Z,40.53
2018-11-10T10:00:24.135Z,42.47
2018-11-10T10:02:51.989Z,41.33
2018-11-10T10:05:19.516Z,40.67
2018-11-10T10:07:47.192Z,35.20
2018-11-10T10:10:16.377Z,40.67
2018-11-10T10:12:44.592Z,40.60
2018-11-10T10:15:13.624Z,35.27
2018-11-10T10:17:42.416Z,36.00
2018-11-10T10:20:13.180Z,35.90
2018-11-10T10:22:41.104Z,36.73
2018-11-10T10:25:12.460Z,36.77
2018-11-10T10:27:40.229Z,35.73
2018-11-10T10:30:14.237Z,35.53
2018-11-10T10:32:42.633Z,33.83
2018-11-10T10:35:10.720Z,33.37
2018-11-10T10:37:38.380Z,31.67
2018-11-10T10:40:08.358Z,32.17
2018-11-10T10:42:36.130Z,28.80
2018-11-10T10:45:05.448Z,31.20
2018-11-10T10:47:33.103Z,34.00
2018-11-10T10:50:00.820Z,29.70
2018-11-10T10:52:28.629Z,30.33
2018-11-10T10:54:56.345Z,34.27
2018-11-10T10:57:24.077Z,33.50
2018-11-10T10:59:51.737Z,29.33
2018-11-10T11:02:25.077Z,27.73
2018-11-10T11:04:54.117Z,27.13
2018-11-10T11:07:22.785Z,28.87
2018-11-10T11:09:50.457Z,30.80
2018-11-10T11:12:18.156Z,26.53
2018-11-10T11:14:45.810Z,26.30
2018-11-10T11:17:13.515Z,30.63
2018-11-10T11:19:41.345Z,23.40
2018-11-10T11:22:09.046Z,25.80
2018-11-10T11:24:37.212Z,25.93
2018-11-10T11:27:05.194Z,25.73
2018-11-10T11:29:36.454Z,24.40
2018-11-10T11:32:04.988Z,26.97
2018-11-10T11:34:32.745Z,24.57
2018-11-10T11:37:00.501Z,21.40
2018-11-10T11:39:28.238Z,23.70
2018-11-10T11:41:55.938Z,25.30
2018-11-10T11:44:23.584Z,24.10
2018-11-10T11:46:51.284Z,24.17
2018-11-10T11:49:18.985Z,25.53
2018-11-10T11:51:46.668Z,23.30
2018-11-10T11:54:14.333Z,23.43
2018-11-10T11:56:42.147Z,25.47
2018-11-10T11:59:09.773Z,25.37
2018-11-10T12:01:37.470Z,25.83
2018-11-10T12:04:05.369Z,22.47
2018-11-10T12:06:33.088Z,21.43
2018-11-10T12:09:00.852Z,21.80
2018-11-10T12:11:28.688Z,24.47
2018-11-10T12:13:56.396Z,26.13
2018-11-10T12:16:27.637Z,21.70
2018-11-10T12:18:51.832Z,20.67
2018-11-10T12:21:19.549Z,24.00
2018-11-10T12:23:47.312Z,18.63
2018-11-10T12:26:14.996Z,24.27
2018-11-10T12:28:42.915Z,24.00
2018-11-10T12:31:10.694Z,22.27
2018-11-10T12:33:38.377Z,23.10
2018-11-10T12:36:06.224Z,23.30
2018-11-10T12:38:33.994Z,19.87
2018-11-10T12:41:01.701Z,21.00
2018-11-10T12:43:29.362Z,20.43
2018-11-10T12:45:57.272Z,18.83
2018-11-10T12:48:24.988Z,18.40
2018-11-10T12:50:52.674Z,20.77
2018-11-10T12:53:20.425Z,19.63
2018-11-10T12:55:48.145Z,18.13
2018-11-10T12:58:15.823Z,17.73
2018-11-10T13:00:43.516Z,19.87
2018-11-10T13:03:11.225Z,18.97
2018-11-10T13:05:38.952Z,18.57
2018-11-10T13:08:06.645Z,20.57
2018-11-10T13:10:34.442Z,16.17
2018-11-10T13:13:02.145Z,17.40
2018-11-10T13:15:30.177Z,15.20
2018-11-10T13:17:57.912Z,16.27
2018-11-10T13:20:25.633Z,15.97
2018-11-10T13:22:53.255Z,15.40
2018-11-10T13:25:20.987Z,17.73
2018-11-10T13:27:48.669Z,16.97
2018-11-10T13:30:16.284Z,17.23
2018-11-10T13:32:43.996Z,16.37
2018-11-10T13:35:11.819Z,18.23
2018-11-10T13:37:40.044Z,18.33
2018-11-10T13:40:08.429Z,15.20
2018-11-10T13:42:36.176Z,15.50
2018-11-10T13:45:05.070Z,15.80
2018-11-10T13:47:32.797Z,17.13
2018-11-10T13:50:01.309Z,17.10
2018-11-10T13:52:29.304Z,15.07
2018-11-10T13:54:56.697Z,16.63
2018-11-10T13:57:24.767Z,15.13
2018-11-10T13:59:52.459Z,16.63
2018-11-10T14:02:20.133Z,15.93
2018-11-10T14:04:47.812Z,16.53
2018-11-10T14:07:15.452Z,15.90
2018-11-10T14:09:43.069Z,14.13
2018-11-10T14:12:10.754Z,12.57
2018-11-10T14:14:38.396Z,16.27
2018-11-10T14:17:06.152Z,14.10
2018-11-10T14:19:33.960Z,18.43
2018-11-10T14:22:01.617Z,15.27
2018-11-10T14:24:29.367Z,14.77
2018-11-10T14:26:57.078Z,17.77
2018-11-10T14:29:24.773Z,15.17
2018-11-10T14:31:52.434Z,11.77
2018-11-10T14:34:20.094Z,13.70
2018-11-10T14:36:47.858Z,14.67
2018-11-10T14:39:15.593Z,13.20
2018-11-10T14:41:43.377Z,14.87
2018-11-10T14:44:11.162Z,15.33
2018-11-10T14:46:38.848Z,14.17
2018-11-10T14:49:07.117Z,15.73
2018-11-10T14:51:34.923Z,17.37
2018-11-10T14:54:02.925Z,14.40
2018-11-10T14:56:30.620Z,14.03
2018-11-10T14:58:58.326Z,15.03
2018-11-10T15:01:26.080Z,14.27
2018-11-10T15:03:53.770Z,15.07
2018-11-10T15:06:21.541Z,14.20
2018-11-10T15:08:49.209Z,13.50
2018-11-10T15:11:16.860Z,15.27
2018-11-10T15:13:44.600Z,15.07
2018-11-10T15:16:12.248Z,15.37
2018-11-10T15:18:39.864Z,16.87
2018-11-10T15:21:07.615Z,14.97
2018-11-10T15:23:35.268Z,14.60
2018-11-10T15:26:02.947Z,12.40
2018-11-10T15:28:30.630Z,14.90
2018-11-10T15:30:58.297Z,15.80
2018-11-10T15:33:25.988Z,15.90
2018-11-10T15:35:53.633Z,16.00
2018-11-10T15:38:21.572Z,14.87
2018-11-10T15:40:49.298Z,17.77
2018-11-10T15:43:17.021Z,15.30
2018-11-10T15:45:44.708Z,19.00
2018-11-10T15:48:12.426Z,15.60
2018-11-10T15:50:40.217Z,16.80
2018-11-10T15:53:07.833Z,16.20
2018-11-10T15:55:35.510Z,15.87
2018-11-10T15:58:03.199Z,15.77
2018-11-10T16:00:30.848Z,18.63
2018-11-10T16:02:58.573Z,15.70
2018-11-10T16:05:26.309Z,19.53
2018-11-10T16:07:53.948Z,13.93
2018-11-10T16:10:21.840Z,19.13
2018-11-10T16:12:49.461Z,17.73
2018-11-10T16:15:17.701Z,16.33
2018-11-10T16:17:45.453Z,19.57
2018-11-10T16:20:15.108Z,18.63
2018-11-10T16:22:44.182Z,17.63
2018-11-10T16:25:11.846Z,20.40
2018-11-10T16:27:43.927Z,20.23
2018-11-10T16:30:13.268Z,17.90
2018-11-10T16:32:41.108Z,15.63
2018-11-10T16:35:09.068Z,16.17
2018-11-10T16:37:36.760Z,14.70
2018-11-10T16:40:07.890Z,14.07
2018-11-10T16:42:35.865Z,14.13
2018-11-10T16:45:03.937Z,15.33
2018-11-10T16:47:31.673Z,13.60
2018-11-10T16:49:59.373Z,18.83
2018-11-10T16:52:27.084Z,14.07
2018-11-10T16:54:54.825Z,13.80
2018-11-10T16:57:22.477Z,17.40
2018-11-10T16:59:50.128Z,15.23
2018-11-10T17:02:17.900Z,12.93
2018-11-10T17:04:45.561Z,19.07
2018-11-10T17:07:13.321Z,18.17
2018-11-10T17:09:40.972Z,16.07
2018-11-10T17:12:08.733Z,18.60
2018-11-10T17:14:36.500Z,15.97
2018-11-10T17:17:04.579Z,18.50
2018-11-10T17:19:32.223Z,15.43
2018-11-10T17:22:00.043Z,17.03
2018-11-10T17:24:27.609Z,16.43
2018-11-10T17:26:55.294Z,16.13
2018-11-10T17:29:22.989Z,16.73
2018-11-10T17:31:50.769Z,18.00
2018-11-10T17:34:18.562Z,18.13
2018-11-10T17:36:46.285Z,14.17
2018-11-10T17:39:14.137Z,16.10
2018-11-10T17:41:41.753Z,15.60
2018-11-10T17:44:10.028Z,15.53
2018-11-10T17:46:37.649Z,20.93
2018-11-10T17:49:05.464Z,14.40
2018-11-10T17:51:33.207Z,16.13
2018-11-10T17:54:00.909Z,15.73
2018-11-10T17:56:28.848Z,15.20
2018-11-10T17:58:56.552Z,15.53
2018-11-10T18:01:24.218Z,20.00
2018-11-10T18:03:51.892Z,14.13
2018-11-10T18:06:19.532Z,19.77
2018-11-10T18:08:47.290Z,15.73
2018-11-10T18:11:15.105Z,17.67
2018-11-10T18:13:42.864Z,14.73
2018-11-10T18:16:10.701Z,15.80
2018-11-10T18:18:38.452Z,14.77
2018-11-10T18:21:06.141Z,17.07
2018-11-10T18:23:33.925Z,18.50
2018-11-10T18:26:01.623Z,19.13
2018-11-10T18:28:29.290Z,16.97
2018-11-10T18:30:57.035Z,19.17
2018-11-10T18:33:24.760Z,16.30
2018-11-10T18:35:52.503Z,17.70
2018-11-10T18:38:20.229Z,19.93
2018-11-10T18:40:48.144Z,16.03
2018-11-10T18:43:15.868Z,17.63
2018-11-10T18:45:43.493Z,17.23
2018-11-10T18:48:11.327Z,16.43
2018-11-10T18:50:39.000Z,13.53
2018-11-10T18:53:06.679Z,14.83
2018-11-10T18:55:34.337Z,15.83
2018-11-10T18:58:02.121Z,12.90
2018-11-10T19:00:29.697Z,15.13
2018-11-10T19:02:57.650Z,17.47
2018-11-10T19:05:25.322Z,18.87
2018-11-10T19:07:53.100Z,18.63
2018-11-10T19:10:20.865Z,18.37
2018-11-10T19:12:48.810Z,16.40
2018-11-10T19:15:18.539Z,15.67
2018-11-10T19:17:46.345Z,17.97
2018-11-10T19:20:14.606Z,18.77
2018-11-10T19:22:42.315Z,20.80
2018-11-10T19:25:11.577Z,17.97
2018-11-10T19:27:39.321Z,16.43
2018-11-10T19:30:11.078Z,15.13
2018-11-10T19:32:38.730Z,16.83
2018-11-10T19:35:06.492Z,20.23
2018-11-10T19:37:34.148Z,16.43
2018-11-10T19:40:01.960Z,17.77
2018-11-10T19:42:29.748Z,16.93
2018-11-10T19:44:57.540Z,18.60
2018-11-10T19:47:25.264Z,18.43
2018-11-10T19:49:52.925Z,19.67
2018-11-10T19:52:20.558Z,20.17
2018-11-10T19:54:48.324Z,21.83
2018-11-10T19:57:16.364Z,17.67
2018-11-10T19:59:44.041Z,15.93
2018-11-10T20:02:13.889Z,15.27
2018-11-10T20:04:41.621Z,14.40
2018-11-10T20:07:09.369Z,13.10
2018-11-10T20:09:37.205Z,14.13
2018-11-10T20:12:17.641Z,15.23
2018-11-10T20:14:45.310Z,18.63
2018-11-10T20:17:13.013Z,12.87
2018-11-10T20:19:41.983Z,14.27
2018-11-10T20:22:09.551Z,13.53
2018-11-10T20:24:41.311Z,13.93
2018-11-10T20:27:09.129Z,12.43
2018-11-10T20:29:36.821Z,12.40
2018-11-10T20:32:04.673Z,12.57
2018-11-10T20:34:32.381Z,8.27
2018-11-10T20:37:00.125Z,6.20
2018-11-10T20:39:27.810Z,8.33
2018-11-10T20:41:55.488Z,5.20
2018-11-10T20:44:23.257Z,4.70
2018-11-10T20:46:50.949Z,4.73
2018-11-10T20:49:19.129Z,4.73
2018-11-10T20:51:46.820Z,4.93
2018-11-10T20:54:14.538Z,5.70
2018-11-10T20:56:43.049Z,5.00
2018-11-10T20:59:12.007Z,4.27
2018-11-10T21:01:39.734Z,5.37
2018-11-10T21:04:09.334Z,4.53
2018-11-10T21:06:38.839Z,4.77
2018-11-10T21:09:15.728Z,4.00
2018-11-10T21:11:43.624Z,4.03
2018-11-10T21:14:11.368Z,3.47
2018-11-10T21:16:39.211Z,4.73
2018-11-10T21:19:08.613Z,3.87
2018-11-10T21:21:37.123Z,3.80
2018-11-10T21:24:05.405Z,4.13
2018-11-10T21:26:33.134Z,3.33
2018-11-10T21:29:01.084Z,3.43
2018-11-10T21:31:28.743Z,4.47
2018-11-10T21:33:56.512Z,4.00
2018-11-10T21:36:24.104Z,4.40
2018-11-10T21:38:51.814Z,3.97
2018-11-10T21:41:19.898Z,5.03
2018-11-10T21:43:47.836Z,4.10
2018-11-10T21:46:15.535Z,5.03
2018-11-10T21:51:15.612Z,5.83
2018-11-10T21:53:47.889Z,9.80
2018-11-10T21:56:15.747Z,6.73
2018-11-10T21:58:44.205Z,6.07
2018-11-10T22:01:12.393Z,6.73
2018-11-10T22:03:40.353Z,8.77
2018-11-10T22:06:08.162Z,12.13
2018-11-10T22:08:35.816Z,9.00
2018-11-10T22:11:04.228Z,9.60
2018-11-10T22:13:31.942Z,12.47
2018-11-10T22:15:59.780Z,13.27
2018-11-10T22:18:27.369Z,11.87
2018-11-10T22:20:55.396Z,13.00
2018-11-10T22:23:23.320Z,17.77
2018-11-10T22:25:51.158Z,16.60
2018-11-10T22:28:19.420Z,16.57
2018-11-10T22:30:47.070Z,12.73
2018-11-10T22:33:14.916Z,16.17
2018-11-10T22:35:42.633Z,17.23
2018-11-10T22:38:10.248Z,18.40
2018-11-10T22:40:37.930Z,19.33
2018-11-10T22:43:06.580Z,17.23
2018-11-10T22:45:34.488Z,16.23
2018-11-10T22:48:02.397Z,17.60
2018-11-10T22:50:30.052Z,16.70
2018-11-10T22:52:57.712Z,19.33
2018-11-10T22:55:25.817Z,18.17
2018-11-10T22:57:53.593Z,17.37
2018-11-10T23:00:28.165Z,17.10
2018-11-10T23:02:58.406Z,15.90
2018-11-10T23:05:27.214Z,17.40
2018-11-10T23:07:55.193Z,17.53
2018-11-10T23:10:23.233Z,18.40
2018-11-10T23:12:51.901Z,19.50
2018-11-10T23:15:19.589Z,18.17
2018-11-10T23:17:47.870Z,17.53
2018-11-10T23:20:17.407Z,19.43
2018-11-10T23:22:45.232Z,14.97
2018-11-10T23:25:14.125Z,13.70
2018-11-10T23:27:41.873Z,16.47
2018-11-10T23:30:14.893Z,17.90
2018-11-10T23:32:42.553Z,16.90
2018-11-10T23:35:10.834Z,15.87
2018-11-10T23:37:38.805Z,15.37
2018-11-10T23:40:09.417Z,15.23
2018-11-10T23:42:37.247Z,15.80
2018-11-10T23:45:06.382Z,11.43
2018-11-10T23:47:34.178Z,16.70
2018-11-10T23:50:01.985Z,14.00
2018-11-10T23:52:29.704Z,18.33
2018-11-10T23:54:57.903Z,14.43
2018-11-10T23:57:26.117Z,12.23
2018-11-10T23:59:53.848Z,10.47
